Time;durP1;ratioP1;P1;durP2;ratioP2;P2;SDS_P1;SDS_P2;PMS_P1;PMS_P2;Temp;Humidity;BMP_temperature;BMP_pressure;BME280_temperature;BME280_humidity;BME280_pressure;Samples;Min_cycle;Max_cycle;Signal;HPM_P1;HPM_P2
2021/09/04 00:01:36;;;;;;;28.57;26.53;;;15.00;89.10;;;;;;5001958;28;20469;-69
2021/09/04 00:04:03;;;;;;;28.57;26.57;;;15.00;89.10;;;;;;5003427;28;20472;-70
2021/09/04 00:06:30;;;;;;;28.00;26.17;;;15.00;89.10;;;;;;4998304;28;20491;-70
2021/09/04 00:08:58;;;;;;;28.60;26.57;;;15.00;89.10;;;;;;5005658;28;20843;-70
2021/09/04 00:11:25;;;;;;;27.90;26.00;;;15.00;89.20;;;;;;5003868;28;20791;-70
2021/09/04 00:13:52;;;;;;;30.93;28.50;;;14.90;89.30;;;;;;5002009;28;21309;-70
2021/09/04 00:16:19;;;;;;;29.10;27.10;;;14.90;89.30;;;;;;4999046;28;20454;-70
2021/09/04 00:18:46;;;;;;;29.13;27.13;;;14.90;89.30;;;;;;5008847;28;20477;-71
2021/09/04 00:21:12;;;;;;;29.40;27.57;;;14.90;89.50;;;;;;5000110;28;21008;-70
2021/09/04 00:23:39;;;;;;;28.53;26.73;;;14.90;89.50;;;;;;5007313;28;22806;-70
2021/09/04 00:26:08;;;;;;;30.30;28.27;;;14.90;89.40;;;;;;5004506;28;20477;-71
2021/09/04 00:28:34;;;;;;;29.47;27.47;;;14.90;89.50;;;;;;5007862;28;20472;-70
2021/09/04 00:31:01;;;;;;;29.67;27.67;;;14.90;89.50;;;;;;5001014;28;20497;-71
2021/09/04 00:33:28;;;;;;;28.27;26.47;;;14.90;89.50;;;;;;5006898;28;20458;-70
2021/09/04 00:35:55;;;;;;;28.67;26.57;;;14.90;89.40;;;;;;5002954;28;20579;-70
2021/09/04 00:38:22;;;;;;;28.67;26.50;;;14.90;89.40;;;;;;5005130;28;20472;-70
2021/09/04 00:40:49;;;;;;;28.97;27.17;;;14.80;89.40;;;;;;5007145;28;20468;-70
2021/09/04 00:43:17;;;;;;;28.93;27.13;;;14.70;89.60;;;;;;5004423;28;21291;-71
2021/09/04 00:45:44;;;;;;;29.83;27.60;;;14.80;89.70;;;;;;4998846;28;20490;-69
2021/09/04 00:48:11;;;;;;;28.80;26.80;;;14.70;89.70;;;;;;5005148;28;20500;-71
2021/09/04 00:50:38;;;;;;;28.97;26.87;;;14.70;89.70;;;;;;5004323;28;20464;-71
2021/09/04 00:53:05;;;;;;;29.53;27.43;;;14.70;89.80;;;;;;5009833;28;20468;-69
2021/09/04 00:55:33;;;;;;;29.60;27.63;;;14.60;90.00;;;;;;4999272;28;20449;-69
2021/09/04 00:58:00;;;;;;;27.90;26.20;;;14.70;89.80;;;;;;5010529;28;20459;-69
2021/09/04 01:00:29;;;;;;;29.57;27.67;;;14.70;89.70;;;;;;5009842;28;20467;-69
2021/09/04 01:02:56;;;;;;;28.50;26.50;;;14.70;89.70;;;;;;5000019;28;20460;-69
2021/09/04 01:05:23;;;;;;;28.90;26.73;;;14.60;89.90;;;;;;5002011;28;20477;-69
2021/09/04 01:07:51;;;;;;;27.03;25.33;;;14.60;90.00;;;;;;4999149;28;20550;-69
2021/09/04 01:10:18;;;;;;;30.10;27.70;;;14.60;90.20;;;;;;5000668;28;20543;-69
2021/09/04 01:12:45;;;;;;;29.70;27.87;;;14.50;90.40;;;;;;5009438;28;20980;-69
2021/09/04 01:15:12;;;;;;;28.57;26.67;;;14.50;90.30;;;;;;5006409;28;20448;-69
2021/09/04 01:17:40;;;;;;;28.83;26.83;;;14.50;90.40;;;;;;5000524;28;20456;-69
2021/09/04 01:20:09;;;;;;;28.47;26.60;;;14.50;90.50;;;;;;4997295;28;20492;-69
2021/09/04 01:22:36;;;;;;;29.13;27.30;;;14.50;90.50;;;;;;5006514;28;20831;-69
2021/09/04 01:25:05;;;;;;;29.30;27.27;;;14.50;90.50;;;;;;5000014;28;20476;-69
2021/09/04 01:27:36;;;;;;;28.97;26.93;;;14.50;90.40;;;;;;5001212;28;20464;-69
2021/09/04 01:30:04;;;;;;;28.90;27.00;;;14.50;90.40;;;;;;5000842;28;20470;-69
2021/09/04 01:32:31;;;;;;;28.40;26.57;;;14.50;90.30;;;;;;5006564;28;20452;-69
2021/09/04 01:35:05;;;;;;;28.90;27.07;;;14.50;90.30;;;;;;5005243;28;20540;-69
2021/09/04 01:37:32;;;;;;;28.97;26.97;;;14.40;90.30;;;;;;5005636;28;20468;-69
2021/09/04 01:39:59;;;;;;;29.03;27.03;;;14.40;90.30;;;;;;5003997;28;20501;-69
2021/09/04 01:42:26;;;;;;;28.17;26.27;;;14.40;90.50;;;;;;5003704;28;20469;-69
2021/09/04 01:44:55;;;;;;;28.63;26.23;;;14.30;90.50;;;;;;5001431;28;20464;-69
2021/09/04 01:47:21;;;;;;;28.10;26.50;;;14.40;90.50;;;;;;5004185;28;20842;-69
2021/09/04 01:49:48;;;;;;;29.10;27.20;;;14.40;90.20;;;;;;5006934;28;20839;-69
2021/09/04 01:52:15;;;;;;;28.67;26.77;;;14.40;90.30;;;;;;5005105;28;20818;-69
2021/09/04 01:54:42;;;;;;;30.13;27.93;;;14.30;90.50;;;;;;4995965;28;20556;-69
2021/09/04 01:57:11;;;;;;;29.20;27.20;;;14.30;90.70;;;;;;5003965;28;20940;-70
2021/09/04 01:59:38;;;;;;;28.90;27.20;;;14.30;90.70;;;;;;4994901;28;20485;-69
2021/09/04 02:02:07;;;;;;;28.87;27.07;;;14.30;90.80;;;;;;4993887;28;20469;-69
2021/09/04 02:04:34;;;;;;;28.87;26.97;;;14.30;90.90;;;;;;5005313;28;20464;-69
2021/09/04 02:07:01;;;;;;;29.07;27.07;;;14.20;90.90;;;;;;4995918;28;20487;-69
2021/09/04 02:09:28;;;;;;;28.47;26.53;;;14.20;90.90;;;;;;4999360;28;20482;-69
2021/09/04 02:11:55;;;;;;;28.67;26.77;;;14.20;91.10;;;;;;5003694;28;20464;-69
2021/09/04 02:14:22;;;;;;;28.90;26.83;;;14.20;91.20;;;;;;5006712;28;20453;-69
2021/09/04 02:16:49;;;;;;;29.07;26.77;;;14.20;91.20;;;;;;4999723;28;20481;-69
2021/09/04 02:19:17;;;;;;;28.03;26.23;;;14.20;91.20;;;;;;5004750;28;20989;-69
2021/09/04 02:21:44;;;;;;;29.80;27.80;;;14.20;91.10;;;;;;5005145;28;20982;-69
2021/09/04 02:24:11;;;;;;;30.30;27.70;;;14.20;91.00;;;;;;4998946;28;20519;-69
2021/09/04 02:26:38;;;;;;;28.77;26.87;;;14.20;90.80;;;;;;4999829;28;20808;-69
2021/09/04 02:29:05;;;;;;;29.83;27.73;;;14.20;90.50;;;;;;5005729;28;20472;-69
2021/09/04 02:31:32;;;;;;;29.23;27.33;;;14.10;90.50;;;;;;4998312;28;20461;-70
2021/09/04 02:33:59;;;;;;;29.10;27.10;;;14.10;90.60;;;;;;5007114;28;20452;-69
2021/09/04 02:36:28;;;;;;;28.10;26.30;;;14.00;90.70;;;;;;5007743;28;20882;-69
2021/09/04 02:38:55;;;;;;;29.83;27.73;;;14.00;90.90;;;;;;5000042;28;20573;-69
2021/09/04 02:41:22;;;;;;;30.87;28.87;;;14.00;91.00;;;;;;5001129;28;20462;-69
2021/09/04 02:43:49;;;;;;;29.37;27.40;;;14.00;91.00;;;;;;5000934;28;20944;-68
2021/09/04 02:46:16;;;;;;;29.30;27.20;;;14.00;90.90;;;;;;5001862;28;20479;-68
2021/09/04 02:48:43;;;;;;;29.90;27.90;;;14.00;91.00;;;;;;5002043;28;20473;-68
2021/09/04 02:51:10;;;;;;;28.47;26.53;;;13.90;91.00;;;;;;5002364;28;20449;-69
2021/09/04 02:53:38;;;;;;;30.30;28.20;;;13.90;90.90;;;;;;5004852;28;21087;-68
2021/09/04 02:56:05;;;;;;;29.50;27.63;;;13.90;90.80;;;;;;4999175;28;20469;-69
2021/09/04 02:58:32;;;;;;;29.47;27.47;;;13.90;91.00;;;;;;4996151;28;22712;-68
2021/09/04 03:01:02;;;;;;;28.93;27.17;;;13.80;91.00;;;;;;4995651;28;20469;-69
2021/09/04 03:03:29;;;;;;;28.60;26.67;;;13.90;91.00;;;;;;5002423;28;20457;-69
2021/09/04 03:05:56;;;;;;;29.03;27.13;;;13.90;90.90;;;;;;5001408;28;20484;-68
2021/09/04 03:08:23;;;;;;;29.77;27.70;;;13.90;90.80;;;;;;4995902;28;20512;-69
2021/09/04 03:10:51;;;;;;;28.63;26.50;;;13.80;90.70;;;;;;4992975;28;20470;-68
2021/09/04 03:13:18;;;;;;;28.33;26.50;;;13.80;90.70;;;;;;5005894;28;20450;-68
2021/09/04 03:15:45;;;;;;;29.10;27.07;;;13.80;90.70;;;;;;4997911;28;20544;-69
2021/09/04 03:18:12;;;;;;;28.20;26.40;;;13.70;90.70;;;;;;4998567;28;20476;-68
2021/09/04 03:20:39;;;;;;;28.73;26.77;;;13.70;90.80;;;;;;4995804;28;20500;-68
2021/09/04 03:23:06;;;;;;;29.07;26.97;;;13.70;90.80;;;;;;4999855;28;20553;-69
2021/09/04 03:25:33;;;;;;;27.80;25.97;;;13.70;90.80;;;;;;5000398;28;20476;-69
2021/09/04 03:28:01;;;;;;;28.33;26.40;;;13.60;91.00;;;;;;5003367;28;20463;-69
2021/09/04 03:30:28;;;;;;;27.70;26.00;;;13.70;90.80;;;;;;4998521;28;20452;-68
2021/09/04 03:32:55;;;;;;;27.57;25.80;;;13.70;90.70;;;;;;4997675;28;20479;-68
2021/09/04 03:35:22;;;;;;;29.70;27.07;;;13.60;90.70;;;;;;4999882;28;20590;-68
2021/09/04 03:37:49;;;;;;;29.17;27.17;;;13.60;90.60;;;;;;5000510;28;20478;-69
2021/09/04 03:40:16;;;;;;;27.10;25.50;;;13.60;90.70;;;;;;5003419;28;20482;-69
2021/09/04 03:42:43;;;;;;;27.73;25.93;;;13.60;90.50;;;;;;4999486;28;20461;-68
2021/09/04 03:45:12;;;;;;;27.97;26.17;;;13.50;90.60;;;;;;4994687;28;20543;-70
2021/09/04 03:47:39;;;;;;;27.63;25.73;;;13.50;90.60;;;;;;5001464;28;20480;-70
2021/09/04 03:50:07;;;;;;;28.13;26.00;;;13.40;90.80;;;;;;4999614;28;20477;-70
2021/09/04 03:52:34;;;;;;;27.07;25.37;;;13.40;91.00;;;;;;4997126;28;20553;-70
2021/09/04 03:55:00;;;;;;;28.00;26.10;;;13.40;91.00;;;;;;4993678;28;20457;-70
2021/09/04 03:57:27;;;;;;;28.27;26.13;;;13.40;90.90;;;;;;4992603;28;20468;-70
2021/09/04 03:59:54;;;;;;;27.90;26.10;;;13.40;90.90;;;;;;5001351;28;20484;-70
2021/09/04 04:02:22;;;;;;;28.43;26.30;;;13.40;91.00;;;;;;4992631;28;20462;-69
2021/09/04 04:04:49;;;;;;;29.03;26.70;;;13.40;91.00;;;;;;5001858;28;20470;-69
2021/09/04 04:07:16;;;;;;;29.00;27.10;;;13.40;91.00;;;;;;4996863;28;20485;-71
2021/09/04 04:09:44;;;;;;;28.57;26.57;;;13.30;90.90;;;;;;5003309;28;20473;-69
2021/09/04 04:12:11;;;;;;;27.20;25.50;;;13.40;90.70;;;;;;5001076;28;20458;-70
2021/09/04 04:14:38;;;;;;;27.20;25.40;;;13.30;90.80;;;;;;4996456;28;21019;-70
2021/09/04 04:17:05;;;;;;;27.00;25.30;;;13.30;90.90;;;;;;5000996;28;20799;-70
2021/09/04 04:19:33;;;;;;;27.40;25.60;;;13.20;90.90;;;;;;5004229;28;20481;-69
2021/09/04 04:22:00;;;;;;;27.13;25.43;;;13.20;91.00;;;;;;4992680;28;20544;-70
2021/09/04 04:24:27;;;;;;;28.70;26.90;;;13.10;91.20;;;;;;5001090;28;20460;-70
2021/09/04 04:26:54;;;;;;;27.53;25.83;;;13.10;91.40;;;;;;5001055;28;20481;-70
2021/09/04 04:29:20;;;;;;;27.67;25.87;;;13.10;91.50;;;;;;4998634;28;20482;-70
2021/09/04 04:31:47;;;;;;;27.67;25.97;;;13.10;91.50;;;;;;4999853;28;20473;-70
2021/09/04 04:34:14;;;;;;;28.67;26.77;;;13.10;91.60;;;;;;4995889;28;20458;-69
2021/09/04 04:36:43;;;;;;;28.80;26.90;;;13.10;91.40;;;;;;4997814;28;20453;-69
2021/09/04 04:39:09;;;;;;;30.30;28.20;;;13.10;91.30;;;;;;4998801;28;20480;-69
2021/09/04 04:41:36;;;;;;;28.10;26.20;;;13.10;91.30;;;;;;5003272;28;20496;-69
2021/09/04 04:44:03;;;;;;;27.53;25.83;;;13.10;91.30;;;;;;4996618;28;20470;-70
2021/09/04 04:46:30;;;;;;;29.60;27.70;;;13.10;91.40;;;;;;4992355;28;20473;-69
2021/09/04 04:48:57;;;;;;;27.67;25.73;;;13.10;91.30;;;;;;4997438;28;20486;-70
2021/09/04 04:51:24;;;;;;;28.00;26.20;;;13.10;91.20;;;;;;4998003;28;20955;-70
2021/09/04 04:53:52;;;;;;;27.93;26.13;;;13.10;91.10;;;;;;4992695;28;20465;-69
2021/09/04 04:56:20;;;;;;;31.77;29.53;;;13.10;91.20;;;;;;5000790;28;20976;-69
2021/09/04 04:58:47;;;;;;;29.10;27.17;;;13.10;91.20;;;;;;4991550;28;20568;-69
2021/09/04 05:01:13;;;;;;;30.27;28.17;;;13.10;91.30;;;;;;5001013;28;20459;-69
2021/09/04 05:03:40;;;;;;;28.00;26.10;;;13.10;91.20;;;;;;5009169;28;20460;-69
2021/09/04 05:06:08;;;;;;;30.97;29.17;;;13.20;91.10;;;;;;4995391;28;20568;-70
2021/09/04 05:08:35;;;;;;;28.70;26.77;;;13.20;90.80;;;;;;5008488;28;20503;-69
2021/09/04 05:11:03;;;;;;;30.53;28.43;;;13.10;90.80;;;;;;5001078;28;20467;-70
2021/09/04 05:13:30;;;;;;;30.00;27.80;;;13.20;90.70;;;;;;5008311;28;20464;-70
2021/09/04 05:15:57;;;;;;;31.13;28.93;;;13.20;90.70;;;;;;4998076;28;20465;-70
2021/09/04 05:18:24;;;;;;;30.60;28.50;;;13.20;90.50;;;;;;5004835;28;20489;-70
2021/09/04 05:20:52;;;;;;;27.57;25.87;;;13.30;90.40;;;;;;5005501;28;20515;-69
2021/09/04 05:23:19;;;;;;;29.43;27.43;;;13.20;90.60;;;;;;5008739;28;20528;-70
2021/09/04 05:25:46;;;;;;;28.90;27.00;;;13.30;90.60;;;;;;5004646;28;20470;-70
2021/09/04 05:28:14;;;;;;;27.53;25.50;;;13.30;90.50;;;;;;5006378;28;20491;-70
2021/09/04 05:30:41;;;;;;;32.27;30.17;;;13.40;90.30;;;;;;5001082;28;20691;-70
2021/09/04 05:33:08;;;;;;;27.83;26.13;;;13.40;90.20;;;;;;5007157;28;20977;-69
2021/09/04 05:35:35;;;;;;;32.50;30.10;;;13.50;90.10;;;;;;4999756;28;20833;-70
2021/09/04 05:38:02;;;;;;;31.53;29.43;;;13.50;90.00;;;;;;4998109;28;20495;-70
2021/09/04 05:40:29;;;;;;;30.80;28.70;;;13.60;89.70;;;;;;4996639;28;20538;-70
2021/09/04 05:42:56;;;;;;;30.73;28.77;;;13.60;89.60;;;;;;5007309;28;20467;-70
2021/09/04 05:45:24;;;;;;;30.23;27.90;;;13.70;89.40;;;;;;4997022;28;20495;-70
2021/09/04 05:47:51;;;;;;;29.97;27.77;;;13.80;89.30;;;;;;5006395;28;20846;-70
2021/09/04 05:50:18;;;;;;;30.83;28.60;;;13.80;89.30;;;;;;4995999;28;21144;-70
2021/09/04 05:52:44;;;;;;;30.93;28.97;;;13.90;89.30;;;;;;4996739;28;20465;-70
2021/09/04 05:55:11;;;;;;;31.33;29.20;;;14.00;89.20;;;;;;4999726;28;20812;-70
2021/09/04 05:57:38;;;;;;;30.27;27.70;;;14.10;89.00;;;;;;5008533;28;20484;-70
2021/09/04 06:00:06;;;;;;;32.33;30.23;;;14.20;88.70;;;;;;4993443;28;20572;-70
2021/09/04 06:02:35;;;;;;;30.70;28.43;;;14.20;88.70;;;;;;4996080;28;20480;-70
2021/09/04 06:05:01;;;;;;;31.90;29.40;;;14.40;88.60;;;;;;5006384;28;20456;-70
2021/09/04 06:07:28;;;;;;;30.83;28.63;;;14.40;88.70;;;;;;4998732;28;20479;-70
2021/09/04 06:09:55;;;;;;;31.50;29.40;;;14.50;88.70;;;;;;5009612;28;20482;-71
2021/09/04 06:12:22;;;;;;;34.13;31.20;;;14.60;88.70;;;;;;4999658;28;20976;-69
2021/09/04 06:14:49;;;;;;;31.43;29.20;;;14.70;88.80;;;;;;5002726;28;20467;-69
2021/09/04 06:17:16;;;;;;;35.10;32.67;;;14.80;88.80;;;;;;5000694;28;20456;-69
2021/09/04 06:19:44;;;;;;;33.20;30.70;;;14.90;88.80;;;;;;5001500;28;20480;-69
2021/09/04 06:22:11;;;;;;;32.93;30.57;;;15.10;88.40;;;;;;4993474;28;20217;-69
2021/09/04 06:24:38;;;;;;;33.40;31.00;;;15.10;87.90;;;;;;4997675;28;20475;-69
2021/09/04 06:27:05;;;;;;;30.90;28.80;;;15.20;87.90;;;;;;4997658;28;20496;-69
2021/09/04 06:29:32;;;;;;;31.97;29.77;;;15.20;87.90;;;;;;5000022;28;20487;-69
2021/09/04 06:31:58;;;;;;;33.17;30.87;;;15.30;87.80;;;;;;5007469;28;20468;-70
2021/09/04 06:34:25;;;;;;;31.07;28.90;;;15.40;87.60;;;;;;5005705;28;20461;-69
2021/09/04 06:36:53;;;;;;;32.57;30.37;;;15.40;87.50;;;;;;5005500;28;21116;-70
2021/09/04 06:39:20;;;;;;;32.53;30.13;;;15.60;87.20;;;;;;4999412;28;20573;-69
2021/09/04 06:41:47;;;;;;;33.40;31.20;;;15.70;87.00;;;;;;5001708;28;20832;-69
2021/09/04 06:44:14;;;;;;;31.90;29.63;;;15.70;86.60;;;;;;5006069;28;20540;-70
2021/09/04 06:46:41;;;;;;;31.77;29.60;;;15.80;86.60;;;;;;4991271;28;20888;-70
2021/09/04 06:49:08;;;;;;;33.97;31.73;;;15.90;86.50;;;;;;4994317;28;20974;-70
2021/09/04 06:51:35;;;;;;;31.23;29.10;;;16.00;86.40;;;;;;4992410;28;20478;-70
2021/09/04 06:54:03;;;;;;;32.37;30.13;;;16.10;86.10;;;;;;4999865;28;20480;-72
2021/09/04 06:56:30;;;;;;;31.07;29.00;;;16.20;85.90;;;;;;4997203;28;20461;-71
2021/09/04 06:58:57;;;;;;;33.00;30.80;;;16.20;85.50;;;;;;4997729;28;20487;-72
2021/09/04 07:01:24;;;;;;;32.20;30.00;;;16.30;85.40;;;;;;4993549;28;20536;-72
2021/09/04 07:03:51;;;;;;;31.20;29.10;;;16.40;85.30;;;;;;4993868;28;20460;-72
2021/09/04 07:06:18;;;;;;;32.30;29.87;;;16.50;85.10;;;;;;4995360;28;20471;-71
2021/09/04 07:08:44;;;;;;;33.37;30.80;;;16.60;84.80;;;;;;5002689;28;21069;-71
2021/09/04 07:11:13;;;;;;;32.20;29.90;;;16.70;84.20;;;;;;5004553;28;20460;-71
2021/09/04 07:13:41;;;;;;;32.47;30.37;;;16.80;84.00;;;;;;4997776;28;20469;-71
2021/09/04 07:16:08;;;;;;;33.70;31.20;;;16.90;83.60;;;;;;5001680;28;20454;-70
2021/09/04 07:18:35;;;;;;;34.67;32.17;;;17.00;83.30;;;;;;4994379;28;20604;-72
2021/09/04 07:21:02;;;;;;;33.30;31.03;;;17.10;83.10;;;;;;5003321;28;20452;-71
2021/09/04 07:23:28;;;;;;;32.80;30.63;;;17.20;82.80;;;;;;4999916;28;20464;-72
2021/09/04 07:25:55;;;;;;;33.37;30.97;;;17.30;82.80;;;;;;5000709;28;20469;-71
2021/09/04 07:28:24;;;;;;;33.50;31.20;;;17.40;82.50;;;;;;5000551;28;20484;-71
2021/09/04 07:30:53;;;;;;;34.80;32.20;;;17.50;82.30;;;;;;4993386;28;20461;-70
2021/09/04 07:33:20;;;;;;;34.03;31.77;;;17.50;82.20;;;;;;4998234;28;20466;-70
2021/09/04 07:35:47;;;;;;;33.90;31.30;;;17.60;82.10;;;;;;4993989;28;20478;-72
2021/09/04 07:38:14;;;;;;;33.67;31.33;;;17.70;81.90;;;;;;5002837;28;20882;-72
2021/09/04 07:40:41;;;;;;;33.53;31.10;;;17.80;81.60;;;;;;4994073;28;20458;-71
2021/09/04 07:43:08;;;;;;;31.93;29.63;;;17.90;81.20;;;;;;4993219;28;20457;-73
2021/09/04 07:45:38;;;;;;;36.03;33.63;;;18.00;80.90;;;;;;4999156;28;20472;-71
2021/09/04 07:48:06;;;;;;;36.57;33.97;;;18.10;80.70;;;;;;5001122;28;20484;-70
2021/09/04 07:50:33;;;;;;;34.87;32.53;;;18.20;80.40;;;;;;5003113;28;21244;-70
2021/09/04 07:53:01;;;;;;;34.20;31.90;;;18.30;79.60;;;;;;4993856;28;20472;-70
2021/09/04 07:55:28;;;;;;;37.43;34.83;;;18.50;79.20;;;;;;4993631;28;20472;-70
2021/09/04 07:57:55;;;;;;;32.93;30.67;;;18.50;79.20;;;;;;4992330;28;20463;-70
2021/09/04 08:00:22;;;;;;;33.20;30.90;;;18.60;79.00;;;;;;4995445;28;20562;-70
2021/09/04 08:02:52;;;;;;;35.97;33.67;;;18.60;78.90;;;;;;4997913;28;20460;-70
2021/09/04 08:05:19;;;;;;;33.60;31.17;;;18.70;78.40;;;;;;5000690;28;21142;-70
2021/09/04 08:07:46;;;;;;;36.13;33.93;;;18.80;78.20;;;;;;5007284;28;20484;-70
2021/09/04 08:10:13;;;;;;;34.10;31.73;;;19.00;77.30;;;;;;5003090;28;20556;-70
2021/09/04 08:12:41;;;;;;;33.60;31.20;;;19.10;77.20;;;;;;4999694;28;20481;-70
2021/09/04 08:15:10;;;;;;;32.40;30.17;;;19.20;76.80;;;;;;4998300;28;20820;-70
2021/09/04 08:17:36;;;;;;;35.90;33.30;;;19.30;76.40;;;;;;5009141;28;20546;-70
2021/09/04 08:20:06;;;;;;;35.97;33.47;;;19.50;75.60;;;;;;5005571;28;20848;-70
2021/09/04 08:22:33;;;;;;;35.37;33.07;;;19.60;74.60;;;;;;5003927;28;20458;-70
2021/09/04 08:25:00;;;;;;;36.27;33.97;;;19.60;74.80;;;;;;5000288;28;21013;-70
2021/09/04 08:27:27;;;;;;;33.43;31.10;;;19.60;74.90;;;;;;5008277;28;20476;-72
2021/09/04 08:29:54;;;;;;;33.17;31.07;;;19.70;75.10;;;;;;5009040;28;20500;-73
2021/09/04 08:32:21;;;;;;;33.70;31.50;;;19.80;74.90;;;;;;5004320;28;20461;-70
2021/09/04 08:34:48;;;;;;;32.83;30.73;;;19.90;74.50;;;;;;5004236;28;20464;-69
2021/09/04 08:37:17;;;;;;;34.70;32.20;;;20.00;74.30;;;;;;5001850;28;20449;-70
2021/09/04 08:39:44;;;;;;;33.43;31.23;;;20.10;73.70;;;;;;5005288;28;21181;-70
2021/09/04 08:42:11;;;;;;;33.70;31.70;;;20.20;73.70;;;;;;5004911;28;20445;-70
2021/09/04 08:44:40;;;;;;;34.93;32.53;;;20.30;73.70;;;;;;4996679;28;20460;-70
2021/09/04 08:47:06;;;;;;;32.97;30.90;;;20.40;73.50;;;;;;5000132;28;20468;-71
2021/09/04 08:49:35;;;;;;;34.27;32.07;;;20.50;73.20;;;;;;5002180;28;20577;-71
2021/09/04 08:52:02;;;;;;;34.40;31.97;;;20.60;72.40;;;;;;4996741;28;20456;-71
2021/09/04 08:54:31;;;;;;;32.33;30.20;;;20.60;71.90;;;;;;5002936;28;20812;-71
2021/09/04 08:56:58;;;;;;;33.23;31.03;;;20.60;71.70;;;;;;4997128;28;20892;-71
2021/09/04 08:59:25;;;;;;;34.30;32.30;;;20.70;71.40;;;;;;4992586;28;20473;-71
2021/09/04 09:01:52;;;;;;;31.80;29.73;;;20.80;71.30;;;;;;4998467;28;20568;-71
2021/09/04 09:04:23;;;;;;;33.40;31.50;;;20.90;70.70;;;;;;5001442;28;20457;-72
2021/09/04 09:06:50;;;;;;;32.83;30.73;;;21.00;70.40;;;;;;4992014;28;20907;-72
2021/09/04 09:09:19;;;;;;;35.20;32.73;;;21.00;69.70;;;;;;4994617;28;20508;-70
2021/09/04 09:11:48;;;;;;;34.10;31.90;;;21.10;69.60;;;;;;4993546;28;20798;-71
2021/09/04 09:14:15;;;;;;;32.20;30.20;;;21.10;69.60;;;;;;4995622;28;20556;-71
2021/09/04 09:16:53;;;;;;;33.40;31.40;;;21.20;69.40;;;;;;4995150;28;20464;-71
2021/09/04 09:19:22;;;;;;;36.60;34.03;;;21.30;68.90;;;;;;4996722;28;20468;-71
2021/09/04 09:21:49;;;;;;;32.57;30.47;;;21.30;68.70;;;;;;4995807;28;20457;-73
2021/09/04 09:24:18;;;;;;;34.90;32.70;;;21.40;68.60;;;;;;4994302;28;20591;-73
2021/09/04 09:26:53;;;;;;;33.90;31.70;;;21.60;68.50;;;;;;4989516;28;20495;-73
2021/09/04 09:29:23;;;;;;;33.73;31.57;;;21.50;67.70;;;;;;4995358;28;20480;-73
2021/09/04 09:31:59;;;;;;;34.13;32.00;;;21.60;67.40;;;;;;4996955;28;20460;-71
2021/09/04 09:34:26;;;;;;;33.20;30.77;;;21.70;67.00;;;;;;4994609;28;20460;-71
2021/09/04 09:36:54;;;;;;;32.50;30.30;;;21.80;66.60;;;;;;4996416;28;20464;-71
2021/09/04 09:39:26;;;;;;;34.10;31.90;;;21.90;66.70;;;;;;4998237;28;20802;-71
2021/09/04 09:41:56;;;;;;;33.13;30.50;;;22.00;66.20;;;;;;4994737;28;20468;-71
2021/09/04 09:44:24;;;;;;;32.57;30.37;;;22.10;66.00;;;;;;4997912;28;20461;-72
2021/09/04 09:46:53;;;;;;;32.77;30.47;;;22.20;66.00;;;;;;4989780;28;20469;-74
2021/09/04 09:49:27;;;;;;;32.33;30.30;;;22.30;65.40;;;;;;5003137;28;20584;-71
2021/09/04 09:52:00;;;;;;;32.77;30.77;;;22.30;65.30;;;;;;4999396;28;20488;-70
2021/09/04 09:54:30;;;;;;;32.67;30.70;;;22.40;65.70;;;;;;5008347;28;20535;-71
2021/09/04 09:57:00;;;;;;;32.97;30.90;;;22.50;65.40;;;;;;5002558;28;20529;-70
2021/09/04 09:59:29;;;;;;;31.97;29.97;;;22.50;63.90;;;;;;5006190;28;20464;-71
2021/09/04 10:01:57;;;;;;;31.63;29.80;;;22.50;63.10;;;;;;4996798;28;20465;-70
2021/09/04 10:04:30;;;;;;;31.83;29.93;;;22.60;62.90;;;;;;4999270;28;20465;-70
2021/09/04 10:06:57;;;;;;;30.07;28.33;;;22.60;61.60;;;;;;5000744;28;20465;-72
2021/09/04 10:09:25;;;;;;;34.77;32.53;;;22.70;60.00;;;;;;5001775;28;20488;-71
2021/09/04 10:11:53;;;;;;;30.00;28.20;;;22.80;59.40;;;;;;4997523;28;20510;-70
2021/09/04 10:14:22;;;;;;;30.77;28.60;;;22.80;59.20;;;;;;4990879;28;20469;-70
2021/09/04 10:16:52;;;;;;;32.33;30.40;;;22.90;59.10;;;;;;4996277;28;20448;-70
2021/09/04 10:19:21;;;;;;;34.37;31.97;;;23.00;59.60;;;;;;4997882;28;20476;-70
2021/09/04 10:21:48;;;;;;;31.37;29.57;;;23.10;59.10;;;;;;5000925;28;20471;-71
2021/09/04 10:24:15;;;;;;;31.90;29.90;;;23.20;58.20;;;;;;5008691;28;20938;-70
2021/09/04 10:26:43;;;;;;;33.27;31.47;;;23.20;56.50;;;;;;5000043;28;21285;-70
2021/09/04 10:29:13;;;;;;;32.30;30.33;;;23.10;55.70;;;;;;5008286;28;20481;-70
2021/09/04 10:31:55;;;;;;;30.90;29.20;;;23.10;56.20;;;;;;5005280;28;20545;-70
2021/09/04 10:34:27;;;;;;;31.50;29.53;;;23.20;56.50;;;;;;5004922;28;21165;-70
2021/09/04 10:36:57;;;;;;;30.53;28.77;;;23.20;56.60;;;;;;5009088;28;20457;-70
2021/09/04 10:39:25;;;;;;;31.60;29.60;;;23.30;55.90;;;;;;5006117;28;20484;-70
2021/09/04 10:41:52;;;;;;;30.23;28.33;;;23.20;54.60;;;;;;5005162;28;20467;-70
2021/09/04 10:44:24;;;;;;;30.33;28.53;;;23.30;55.10;;;;;;5002212;28;20458;-70
2021/09/04 10:46:53;;;;;;;31.53;29.40;;;23.30;55.80;;;;;;4998671;28;20468;-71
2021/09/04 10:49:41;;;;;;;33.83;31.23;;;23.40;55.40;;;;;;4991670;28;20993;-71
2021/09/04 10:52:08;;;;;;;33.53;31.47;;;23.40;54.80;;;;;;4997324;28;20456;-71
2021/09/04 10:55:00;;;;;;;31.27;29.37;;;23.40;54.90;;;;;;5015190;28;20448;-71
2021/09/04 10:57:28;;;;;;;33.20;31.20;;;23.50;53.60;;;;;;4996334;28;20489;-72
2021/09/04 11:00:03;;;;;;;30.83;28.97;;;23.50;55.00;;;;;;5001427;28;20483;-70
2021/09/04 11:02:49;;;;;;;31.40;29.60;;;23.60;54.70;;;;;;5009118;28;20464;-71
2021/09/04 11:05:50;;;;;;;32.20;30.30;;;23.80;54.10;;;;;;4999864;28;20556;-71
2021/09/04 11:08:45;;;;;;;32.13;30.13;;;23.90;53.10;;;;;;5003914;28;20484;-70
2021/09/04 11:11:21;;;;;;;32.17;30.27;;;24.00;53.00;;;;;;4963064;28;20448;-70
2021/09/04 11:13:49;;;;;;;31.20;29.30;;;24.00;53.40;;;;;;4992891;28;20454;-70
2021/09/04 11:16:37;;;;;;;30.60;28.87;;;24.10;52.30;;;;;;5001919;28;20469;-70
2021/09/04 11:19:13;;;;;;;32.33;30.23;;;24.10;52.40;;;;;;5002341;28;20487;-70
2021/09/04 11:21:51;;;;;;;32.20;30.30;;;24.10;55.10;;;;;;4995000;28;20866;-72
2021/09/04 11:24:24;;;;;;;32.63;30.63;;;24.10;53.30;;;;;;5003780;28;20464;-73
2021/09/04 11:26:55;;;;;;;31.17;29.27;;;24.20;52.60;;;;;;4999157;28;20464;-71
2021/09/04 11:29:22;;;;;;;34.77;32.67;;;24.30;52.70;;;;;;5001354;28;20480;-71
2021/09/04 11:32:00;;;;;;;31.57;29.67;;;24.40;52.40;;;;;;5006925;28;20469;-71
2021/09/04 11:34:40;;;;;;;34.17;31.97;;;24.50;55.40;;;;;;5004573;28;20465;-74
2021/09/04 11:37:29;;;;;;;34.87;32.73;;;24.50;55.70;;;;;;4997880;28;20545;-72
2021/09/04 11:40:00;;;;;;;32.43;30.53;;;24.50;56.70;;;;;;4993578;28;20554;-73
2021/09/04 11:42:28;;;;;;;33.97;31.77;;;24.50;56.60;;;;;;5001489;28;21036;-72
2021/09/04 11:44:56;;;;;;;34.37;32.13;;;24.70;56.80;;;;;;5002962;28;20559;-74
2021/09/04 11:47:25;;;;;;;32.47;30.47;;;24.70;56.90;;;;;;5001140;28;20475;-72
2021/09/04 11:49:54;;;;;;;33.67;31.37;;;24.70;56.70;;;;;;5004617;28;20492;-72
2021/09/04 11:52:28;;;;;;;31.87;29.93;;;24.70;56.60;;;;;;4995140;28;20553;-73
2021/09/04 11:55:13;;;;;;;31.70;29.70;;;24.70;56.00;;;;;;5002169;28;20850;-73
2021/09/04 11:57:41;;;;;;;34.33;32.23;;;24.80;56.00;;;;;;4995239;28;20501;-75
2021/09/04 12:00:12;;;;;;;31.97;30.00;;;24.80;55.90;;;;;;4994669;28;20478;-74
2021/09/04 12:02:48;;;;;;;34.90;32.70;;;24.90;55.40;;;;;;5013209;28;20913;-74
2021/09/04 12:05:18;;;;;;;32.27;30.37;;;25.00;55.10;;;;;;4990970;28;20540;-71
2021/09/04 12:07:46;;;;;;;36.10;33.90;;;25.10;54.70;;;;;;4992418;28;21073;-71
2021/09/04 12:10:15;;;;;;;32.50;30.53;;;25.20;54.90;;;;;;5005586;28;20483;-69
2021/09/04 12:12:44;;;;;;;33.70;31.60;;;25.30;54.80;;;;;;4997526;28;20468;-71
2021/09/04 12:15:13;;;;;;;32.33;30.23;;;25.40;54.30;;;;;;5001146;28;20466;-71
2021/09/04 12:17:54;;;;;;;35.07;32.97;;;25.50;54.60;;;;;;5001408;28;20457;-70
2021/09/04 12:20:29;;;;;;;34.87;32.83;;;25.50;54.40;;;;;;4997842;28;20487;-71
2021/09/04 12:23:00;;;;;;;34.97;32.80;;;25.60;53.70;;;;;;5005515;28;20469;-73
2021/09/04 12:25:28;;;;;;;32.60;30.60;;;25.60;53.30;;;;;;4996235;28;20461;-70
2021/09/04 12:28:03;;;;;;;32.10;30.20;;;25.70;53.50;;;;;;4998899;28;20914;-70
2021/09/04 12:30:31;;;;;;;33.90;31.70;;;25.80;52.70;;;;;;4999366;28;20476;-70
2021/09/04 12:33:08;;;;;;;31.90;30.00;;;25.90;52.10;;;;;;5000584;28;20464;-70
2021/09/04 12:35:59;;;;;;;35.13;32.93;;;26.00;50.70;;;;;;4989672;28;20544;-70